createdAt,value
2019-03-03T00:01:16.094Z,7.60
2019-03-03T00:04:36.249Z,6.75
2019-03-03T00:07:07.955Z,7.15
2019-03-03T00:09:42.854Z,7.78
2019-03-03T00:12:24.326Z,7.28
2019-03-03T00:14:56.216Z,6.22
2019-03-03T00:17:27.002Z,6.78
2019-03-03T00:20:03.972Z,6.85
2019-03-03T00:22:42.886Z,6.12
2019-03-03T00:25:13.585Z,6.30
2019-03-03T00:27:43.642Z,5.72
2019-03-03T00:30:22.607Z,5.90
2019-03-03T00:35:38.934Z,5.60
2019-03-03T00:38:29.943Z,6.55
2019-03-03T00:41:36.872Z,5.55
2019-03-03T00:48:10.704Z,5.72
2019-03-03T00:51:03.491Z,5.17
2019-03-03T00:54:08.187Z,4.42
2019-03-03T00:56:57.710Z,4.33
2019-03-03T00:59:55.901Z,5.25
2019-03-03T01:02:54.157Z,4.60
2019-03-03T01:05:38.046Z,3.77
2019-03-03T01:08:36.311Z,4.33
2019-03-03T01:11:18.618Z,5.72
2019-03-03T01:14:22.805Z,5.00
2019-03-03T01:17:10.681Z,5.17
2019-03-03T01:20:13.656Z,4.78
2019-03-03T01:23:09.418Z,5.20
2019-03-03T01:25:55.209Z,3.87
2019-03-03T01:28:22.769Z,4.58
2019-03-03T01:30:53.405Z,4.25
2019-03-03T01:33:30.581Z,5.33
2019-03-03T01:36:01.618Z,4.78
2019-03-03T01:38:34.953Z,4.10
2019-03-03T01:41:08.510Z,3.50
2019-03-03T01:43:38.188Z,3.70
2019-03-03T01:46:10.025Z,4.20
2019-03-03T01:51:41.900Z,4.00
2019-03-03T01:54:12.133Z,3.80
2019-03-03T01:56:42.364Z,4.08
2019-03-03T01:59:12.247Z,3.77
2019-03-03T02:01:42.226Z,4.70
2019-03-03T02:04:12.002Z,4.40
2019-03-03T02:06:41.908Z,3.83
2019-03-03T02:09:12.581Z,4.50
2019-03-03T02:11:42.070Z,4.25
2019-03-03T02:14:11.761Z,4.20
2019-03-03T02:16:41.497Z,5.30
2019-03-03T02:19:11.406Z,5.35
2019-03-03T02:21:41.229Z,4.97
2019-03-03T02:24:11.280Z,5.28
2019-03-03T02:26:41.218Z,5.45
2019-03-03T02:29:10.877Z,4.33
2019-03-03T02:31:40.489Z,3.70
2019-03-03T02:34:13.345Z,5.35
2019-03-03T02:36:43.566Z,3.45
2019-03-03T02:39:37.542Z,4.12
2019-03-03T02:42:07.933Z,3.83
2019-03-03T02:44:40.704Z,3.72
2019-03-03T02:47:13.679Z,3.45
2019-03-03T02:49:43.567Z,4.95
2019-03-03T02:52:13.685Z,3.20
2019-03-03T02:54:54.843Z,5.47
2019-03-03T02:57:25.001Z,5.67
2019-03-03T02:59:55.281Z,4.03
2019-03-03T03:02:45.856Z,5.33
2019-03-03T03:05:19.319Z,6.62
2019-03-03T03:08:03.029Z,5.00
2019-03-03T03:10:47.192Z,5.08
2019-03-03T03:13:49.418Z,4.20
2019-03-03T03:19:48.632Z,4.35
2019-03-03T03:22:55.333Z,4.50
2019-03-03T03:28:58.127Z,4.70
2019-03-03T03:32:06.343Z,3.50
2019-03-03T03:34:46.823Z,3.10
2019-03-03T03:37:24.464Z,3.58
2019-03-03T03:40:17.288Z,3.10
2019-03-03T03:43:12.483Z,3.02
2019-03-03T03:46:03.964Z,3.40
2019-03-03T03:49:01.339Z,2.90
2019-03-03T03:51:40.956Z,2.45
2019-03-03T03:54:51.971Z,3.12
2019-03-03T03:57:56.085Z,3.58
2019-03-03T04:06:13.694Z,3.20
2019-03-03T04:07:35.843Z,3.77
2019-03-03T04:10:12.270Z,4.05
2019-03-03T04:13:19.492Z,4.37
2019-03-03T04:16:08.254Z,3.52
2019-03-03T04:18:58.847Z,2.65
2019-03-03T04:21:48.461Z,4.00
2019-03-03T04:24:39.233Z,3.42
2019-03-03T04:27:18.488Z,3.30
2019-03-03T04:30:10.392Z,6.08
2019-03-03T04:33:02.821Z,3.70
2019-03-03T04:39:18.357Z,3.60
2019-03-03T04:42:07.693Z,3.50
2019-03-03T04:44:57.087Z,3.87
2019-03-03T04:47:53.943Z,4.65
2019-03-03T04:51:12.075Z,3.67
2019-03-03T04:53:55.683Z,3.90
2019-03-03T04:57:28.951Z,4.10
2019-03-03T05:00:33.915Z,4.40
2019-03-03T05:03:25.843Z,4.33
2019-03-03T05:06:05.588Z,4.83
2019-03-03T05:08:46.640Z,4.90
2019-03-03T05:18:08.644Z,6.12
2019-03-03T05:20:58.208Z,6.60
2019-03-03T05:23:30.474Z,6.70
2019-03-03T05:26:41.155Z,5.70
2019-03-03T05:29:59.712Z,5.50
2019-03-03T05:32:34.750Z,5.78
2019-03-03T05:35:06.894Z,5.97
2019-03-03T05:37:40.489Z,6.28
2019-03-03T05:47:38.172Z,6.62
2019-03-03T05:50:09.656Z,4.90
2019-03-03T05:53:06.241Z,6.08
2019-03-03T05:55:46.038Z,7.15
2019-03-03T05:58:38.698Z,5.35
2019-03-03T06:01:20.791Z,5.15
2019-03-03T06:04:38.048Z,5.25
2019-03-03T06:07:45.106Z,6.25
2019-03-03T06:13:34.921Z,6.75
2019-03-03T06:16:05.732Z,7.75
2019-03-03T06:18:40.130Z,6.87
2019-03-03T06:24:42.143Z,5.50
2019-03-03T06:27:45.310Z,5.75
2019-03-03T06:30:15.476Z,6.33
2019-03-03T06:32:45.115Z,5.42
2019-03-03T06:35:14.811Z,6.28
2019-03-03T06:37:44.878Z,6.20
2019-03-03T06:40:14.675Z,5.95
2019-03-03T06:42:44.518Z,5.28
2019-03-03T06:45:14.500Z,5.70
2019-03-03T06:47:44.276Z,5.50
2019-03-03T06:50:14.122Z,6.00
2019-03-03T06:52:43.612Z,3.75
2019-03-03T06:55:13.314Z,6.83
2019-03-03T06:57:43.083Z,5.20
2019-03-03T07:00:15.722Z,6.70
2019-03-03T07:02:45.475Z,5.53
2019-03-03T07:05:15.116Z,6.50
2019-03-03T07:07:44.746Z,6.70
2019-03-03T07:10:15.068Z,6.40
2019-03-03T07:12:44.879Z,7.35
2019-03-03T07:15:16.015Z,5.97
2019-03-03T07:17:45.829Z,6.78
2019-03-03T07:20:15.601Z,6.87
2019-03-03T07:22:45.176Z,7.17
2019-03-03T07:25:15.175Z,7.05
2019-03-03T07:27:44.745Z,7.37
2019-03-03T07:30:15.002Z,7.12
2019-03-03T07:33:09.270Z,7.25
2019-03-03T07:35:39.085Z,7.53
2019-03-03T07:38:08.517Z,6.10
2019-03-03T07:40:38.278Z,7.70
2019-03-03T07:43:07.917Z,7.60
2019-03-03T07:45:38.324Z,7.40
2019-03-03T07:48:07.835Z,8.28
2019-03-03T07:50:37.374Z,7.28
2019-03-03T07:53:07.315Z,8.63
2019-03-03T07:55:36.544Z,6.58
2019-03-03T07:58:06.053Z,8.70
2019-03-03T08:00:35.698Z,8.23
2019-03-03T08:03:05.692Z,6.87
2019-03-03T08:05:35.278Z,5.70
2019-03-03T08:08:04.880Z,7.85
2019-03-03T08:10:34.485Z,7.90
2019-03-03T08:13:09.308Z,7.45
2019-03-03T08:15:35.514Z,7.87
2019-03-03T08:18:05.150Z,8.48
2019-03-03T08:20:35.280Z,6.03
2019-03-03T08:23:04.926Z,7.15
2019-03-03T08:25:34.561Z,8.35
2019-03-03T08:28:04.491Z,7.95
2019-03-03T08:30:34.675Z,7.03
2019-03-03T08:33:04.730Z,9.68
2019-03-03T08:35:34.797Z,10.72
2019-03-03T08:38:04.678Z,10.60
2019-03-03T08:40:34.251Z,7.15
2019-03-03T08:43:12.065Z,9.03
2019-03-03T08:46:13.125Z,9.03
2019-03-03T08:48:59.884Z,10.18
2019-03-03T08:51:40.373Z,11.40
2019-03-03T08:54:28.132Z,9.20
2019-03-03T08:57:16.732Z,9.05
2019-03-03T09:00:05.567Z,10.03
2019-03-03T09:02:57.122Z,8.83
2019-03-03T09:05:45.584Z,8.08
2019-03-03T09:08:40.487Z,11.08
2019-03-03T09:11:32.307Z,10.48
2019-03-03T09:14:12.769Z,10.65
2019-03-03T09:16:55.564Z,11.83
2019-03-03T09:19:42.595Z,14.83
2019-03-03T09:22:33.963Z,14.25
2019-03-03T09:25:23.212Z,16.00
2019-03-03T09:28:02.757Z,15.85
2019-03-03T09:30:42.770Z,11.60
2019-03-03T09:33:26.812Z,14.28
2019-03-03T09:36:04.435Z,14.33
2019-03-03T09:39:08.216Z,18.00
2019-03-03T09:41:50.762Z,15.35
2019-03-03T09:44:37.957Z,17.55
2019-03-03T09:47:29.868Z,15.28
2019-03-03T09:50:16.574Z,17.75
2019-03-03T09:53:23.967Z,16.95
2019-03-03T09:56:12.823Z,18.98
2019-03-03T09:59:00.663Z,17.60
2019-03-03T10:01:47.999Z,18.30
2019-03-03T10:04:23.828Z,18.12
2019-03-03T10:07:13.568Z,16.50
2019-03-03T10:10:08.096Z,14.93
2019-03-03T10:12:49.171Z,15.55
2019-03-03T10:15:25.214Z,17.10
2019-03-03T10:18:13.677Z,13.95
2019-03-03T10:21:03.243Z,14.47
2019-03-03T10:23:50.468Z,11.38
2019-03-03T10:26:39.328Z,12.00
2019-03-03T10:29:34.054Z,11.60
2019-03-03T10:32:21.751Z,11.78
2019-03-03T10:34:57.238Z,9.55
2019-03-03T10:37:47.488Z,9.10
2019-03-03T10:40:35.013Z,8.78
2019-03-03T10:43:26.427Z,9.55
2019-03-03T10:46:30.649Z,8.48
2019-03-03T10:49:06.115Z,9.33
2019-03-03T10:52:06.924Z,9.18
2019-03-03T10:54:44.928Z,9.35
2019-03-03T10:57:30.386Z,8.50
2019-03-03T11:00:17.834Z,8.90
2019-03-03T11:03:06.693Z,9.75
2019-03-03T11:05:56.468Z,8.38
2019-03-03T11:08:44.045Z,7.83
2019-03-03T11:11:32.134Z,8.15
2019-03-03T11:14:19.193Z,8.65
2019-03-03T11:16:58.252Z,8.10
2019-03-03T11:19:47.237Z,8.13
2019-03-03T11:22:38.856Z,9.68
2019-03-03T11:25:27.917Z,8.43
2019-03-03T11:28:03.119Z,7.35
2019-03-03T11:31:03.896Z,8.73
2019-03-03T11:33:45.688Z,7.25
2019-03-03T11:36:29.215Z,5.72
2019-03-03T11:39:16.612Z,6.58
2019-03-03T11:42:00.788Z,5.90
2019-03-03T11:44:43.852Z,4.80
2019-03-03T11:47:31.536Z,5.65
2019-03-03T11:50:35.343Z,5.78
2019-03-03T11:53:30.140Z,6.20
2019-03-03T11:56:11.112Z,5.30
2019-03-03T11:58:51.293Z,5.50
2019-03-03T12:01:34.288Z,5.50
2019-03-03T12:04:17.452Z,4.97
2019-03-03T12:06:57.156Z,5.22
2019-03-03T12:09:48.980Z,5.78
2019-03-03T12:12:36.300Z,5.58
2019-03-03T12:15:11.873Z,4.65
2019-03-03T12:17:58.859Z,4.62
2019-03-03T12:20:37.375Z,5.17
2019-03-03T12:23:19.784Z,5.08
2019-03-03T12:26:08.742Z,4.78
2019-03-03T12:29:13.059Z,5.00
2019-03-03T12:32:00.242Z,4.55
2019-03-03T12:34:52.313Z,5.83
2019-03-03T12:37:35.880Z,6.17
2019-03-03T12:40:23.985Z,5.90
2019-03-03T12:43:11.816Z,5.58
2019-03-03T12:46:00.712Z,5.37
2019-03-03T12:48:52.432Z,5.62
2019-03-03T12:51:43.302Z,4.20
2019-03-03T12:54:28.987Z,5.27
2019-03-03T12:57:18.660Z,4.70
2019-03-03T12:59:57.406Z,5.05
2019-03-03T13:02:46.011Z,5.53
2019-03-03T13:05:40.521Z,4.45
2019-03-03T13:08:41.667Z,5.08
2019-03-03T13:11:36.776Z,5.83
2019-03-03T13:14:25.251Z,5.78
2019-03-03T13:17:29.028Z,6.35
2019-03-03T13:20:12.458Z,6.08
2019-03-03T13:23:00.493Z,6.20
2019-03-03T13:25:40.134Z,7.08
2019-03-03T13:28:27.116Z,5.65
2019-03-03T13:31:06.833Z,6.65
2019-03-03T13:34:01.797Z,7.27
2019-03-03T13:37:08.369Z,7.05
2019-03-03T13:39:59.677Z,7.17
2019-03-03T13:42:56.875Z,6.35
2019-03-03T13:45:28.551Z,6.12
2019-03-03T13:47:58.293Z,5.17
2019-03-03T13:50:28.192Z,6.30
2019-03-03T13:52:58.018Z,6.20
2019-03-03T13:55:27.836Z,5.80
2019-03-03T13:57:57.834Z,6.15
2019-03-03T14:00:27.553Z,6.25
2019-03-03T14:02:57.354Z,7.50
2019-03-03T14:05:27.234Z,7.10
2019-03-03T14:07:57.088Z,8.13
2019-03-03T14:10:26.634Z,10.32
2019-03-03T14:12:56.394Z,10.25
2019-03-03T14:15:26.032Z,12.28
2019-03-03T14:17:57.859Z,12.35
2019-03-03T14:20:27.062Z,11.48
2019-03-03T14:22:56.994Z,12.40
2019-03-03T14:25:26.636Z,11.03
2019-03-03T14:27:56.750Z,11.45
2019-03-03T14:30:27.114Z,11.38
2019-03-03T14:32:56.750Z,12.55
2019-03-03T14:35:26.447Z,12.35
2019-03-03T14:37:56.395Z,12.80
2019-03-03T14:40:25.957Z,13.80
2019-03-03T14:42:55.666Z,13.85
2019-03-03T14:45:25.432Z,13.10
2019-03-03T14:47:54.985Z,9.90
2019-03-03T14:50:24.689Z,12.73
2019-03-03T14:52:54.122Z,13.30
2019-03-03T14:55:23.802Z,10.90
2019-03-03T14:57:53.530Z,8.48
2019-03-03T15:00:30.833Z,8.13
2019-03-03T15:03:02.034Z,8.28
2019-03-03T15:05:32.149Z,6.95
2019-03-03T15:08:02.031Z,7.78
2019-03-03T15:10:31.609Z,8.18
2019-03-03T15:13:01.679Z,6.87
2019-03-03T15:15:32.515Z,7.20
2019-03-03T15:18:02.270Z,7.17
2019-03-03T15:20:32.159Z,7.83
2019-03-03T15:23:01.912Z,7.00
2019-03-03T15:25:31.967Z,8.95
2019-03-03T15:28:01.801Z,7.40
2019-03-03T15:30:31.430Z,8.53
2019-03-03T15:33:00.952Z,7.45
2019-03-03T15:35:30.806Z,7.12
2019-03-03T15:38:00.593Z,7.12
2019-03-03T15:40:30.830Z,7.62
2019-03-03T15:43:00.592Z,6.10
2019-03-03T15:45:30.350Z,5.65
2019-03-03T15:47:59.928Z,6.40
2019-03-03T15:50:29.513Z,6.08
2019-03-03T15:52:59.275Z,6.78
2019-03-03T15:55:28.968Z,5.53
2019-03-03T15:57:58.597Z,5.70
2019-03-03T16:00:29.389Z,5.80
2019-03-03T16:02:58.911Z,5.60
2019-03-03T16:05:28.363Z,4.08
2019-03-03T16:07:58.008Z,5.55
2019-03-03T16:10:27.650Z,3.92
2019-03-03T16:12:57.474Z,4.50
2019-03-03T16:15:27.063Z,5.15
2019-03-03T16:17:56.771Z,5.17
2019-03-03T16:20:26.389Z,4.47
2019-03-03T16:22:56.273Z,3.77
2019-03-03T16:25:26.030Z,6.00
2019-03-03T16:27:55.506Z,4.40
2019-03-03T16:30:25.631Z,5.30
2019-03-03T16:32:55.671Z,5.08
2019-03-03T16:35:25.435Z,4.28
2019-03-03T16:37:55.259Z,5.60
2019-03-03T16:40:25.068Z,5.15
2019-03-03T16:42:54.951Z,4.37
2019-03-03T16:45:24.996Z,4.75
2019-03-03T16:47:54.708Z,4.85
2019-03-03T16:50:24.517Z,5.00
2019-03-03T16:52:54.051Z,3.80
2019-03-03T16:55:24.110Z,4.30
2019-03-03T16:57:53.448Z,4.30
2019-03-03T17:00:23.554Z,4.80
2019-03-03T17:02:53.389Z,3.65
2019-03-03T17:05:23.029Z,3.75
2019-03-03T17:07:53.691Z,4.20
2019-03-03T17:10:23.921Z,5.17
2019-03-03T17:12:54.392Z,5.40
2019-03-03T17:15:24.716Z,4.70
2019-03-03T17:18:00.876Z,4.20
2019-03-03T17:20:30.745Z,4.77
2019-03-03T17:23:01.886Z,4.60
2019-03-03T17:25:32.057Z,4.47
2019-03-03T17:28:01.795Z,4.60
2019-03-03T17:30:32.147Z,5.73
2019-03-03T17:33:02.516Z,5.07
2019-03-03T17:35:32.630Z,4.00
2019-03-03T17:38:02.506Z,5.13
2019-03-03T17:40:32.283Z,4.87
2019-03-03T17:43:02.877Z,3.50
2019-03-03T17:45:33.219Z,4.62
2019-03-03T17:48:03.228Z,4.60
2019-03-03T17:50:33.709Z,4.03
2019-03-03T17:53:03.768Z,4.10
2019-03-03T17:55:35.170Z,4.33
2019-03-03T17:58:05.038Z,3.93
2019-03-03T18:00:36.957Z,3.63
2019-03-03T18:03:07.236Z,4.90
2019-03-03T18:05:37.134Z,5.63
2019-03-03T18:08:07.310Z,5.50
2019-03-03T18:10:37.492Z,4.97
2019-03-03T18:13:09.117Z,4.87
2019-03-03T18:15:39.674Z,5.07
2019-03-03T18:18:09.484Z,4.77
2019-03-03T18:20:39.616Z,3.83
2019-03-03T18:23:09.526Z,5.10
2019-03-03T18:25:39.594Z,5.43
2019-03-03T18:28:09.468Z,4.40
2019-03-03T18:30:40.338Z,4.87
2019-03-03T18:33:10.233Z,4.10
2019-03-03T18:35:40.273Z,4.80
2019-03-03T18:38:10.069Z,4.60
2019-03-03T18:40:41.455Z,4.03
2019-03-03T18:43:12.010Z,4.77
2019-03-03T18:45:42.232Z,4.30
2019-03-03T18:48:12.246Z,4.73
2019-03-03T18:50:41.854Z,4.33
2019-03-03T18:53:11.568Z,4.37
2019-03-03T18:55:41.893Z,4.27
2019-03-03T18:58:11.496Z,3.83
2019-03-03T19:00:42.595Z,3.20
2019-03-03T19:03:12.551Z,3.63
2019-03-03T19:05:42.482Z,3.80
2019-03-03T19:08:12.724Z,3.63
2019-03-03T19:10:42.715Z,3.53
2019-03-03T19:13:14.386Z,3.50
2019-03-03T19:15:44.375Z,3.60
2019-03-03T19:18:14.788Z,4.23
2019-03-03T19:20:45.129Z,4.30
2019-03-03T19:23:15.551Z,5.00
2019-03-03T19:25:45.625Z,4.27
2019-03-03T19:28:15.922Z,3.53
2019-03-03T19:30:46.141Z,3.27
2019-03-03T19:33:25.840Z,3.80
2019-03-03T19:35:56.248Z,5.35
2019-03-03T19:38:26.931Z,4.10
2019-03-03T19:40:58.438Z,3.90
2019-03-03T19:43:31.842Z,3.80
2019-03-03T19:46:05.997Z,3.57
2019-03-03T19:48:36.078Z,3.70
2019-03-03T19:51:06.599Z,3.80
2019-03-03T19:53:36.515Z,3.93
2019-03-03T19:56:06.475Z,3.90
2019-03-03T19:58:36.475Z,4.43
2019-03-03T20:01:07.427Z,4.30
2019-03-03T20:03:38.164Z,4.13
2019-03-03T20:06:08.746Z,4.40
2019-03-03T20:08:38.748Z,3.40
2019-03-03T20:11:10.596Z,3.70
2019-03-03T20:13:40.910Z,3.80
2019-03-03T20:16:11.269Z,4.37
2019-03-03T20:18:41.456Z,3.77
2019-03-03T20:21:11.168Z,3.80
2019-03-03T20:23:41.628Z,4.47
2019-03-03T20:26:11.750Z,3.83
2019-03-03T20:28:41.420Z,3.47
2019-03-03T20:31:11.355Z,4.20
2019-03-03T20:33:41.086Z,3.97
2019-03-03T20:36:10.875Z,4.13
2019-03-03T20:38:40.915Z,3.73
2019-03-03T20:41:11.271Z,3.83
2019-03-03T20:43:41.629Z,4.90
2019-03-03T20:46:14.507Z,4.40
2019-03-03T20:48:44.753Z,4.07
2019-03-03T20:51:15.229Z,3.47
2019-03-03T20:53:45.229Z,3.63
2019-03-03T20:56:15.112Z,4.50
2019-03-03T20:58:44.508Z,3.90
2019-03-03T21:01:14.928Z,4.00
2019-03-03T21:03:45.181Z,3.30
2019-03-03T21:06:16.230Z,3.83
2019-03-03T21:08:46.082Z,3.70
2019-03-03T21:11:16.309Z,3.77
2019-03-03T21:13:45.884Z,3.73
2019-03-03T21:16:15.945Z,3.27
2019-03-03T21:18:45.714Z,3.90
2019-03-03T21:21:15.154Z,3.73
2019-03-03T21:23:44.769Z,3.73
2019-03-03T21:26:14.480Z,4.00
2019-03-03T21:28:44.389Z,4.10
2019-03-03T21:31:14.087Z,3.37
2019-03-03T21:33:43.906Z,2.93
2019-03-03T21:36:13.506Z,3.83
2019-03-03T21:38:43.068Z,3.80
2019-03-03T21:41:12.819Z,3.77
2019-03-03T21:43:42.423Z,3.53
2019-03-03T21:46:12.243Z,2.90
2019-03-03T21:48:42.234Z,4.10
2019-03-03T21:51:11.748Z,3.83
2019-03-03T21:53:41.510Z,4.07
2019-03-03T21:56:11.383Z,4.17
2019-03-03T21:58:41.268Z,3.80
2019-03-03T22:01:11.515Z,3.63
2019-03-03T22:03:41.268Z,3.43
2019-03-03T22:06:10.721Z,4.00
2019-03-03T22:08:42.477Z,3.47
2019-03-03T22:11:11.981Z,3.93
2019-03-03T22:13:41.385Z,3.70
2019-03-03T22:16:10.989Z,3.93
2019-03-03T22:18:41.029Z,4.03
2019-03-03T22:21:10.983Z,3.80
2019-03-03T22:23:40.907Z,3.30
2019-03-03T22:26:10.426Z,3.10
2019-03-03T22:28:40.153Z,3.73
2019-03-03T22:31:09.707Z,2.87
2019-03-03T22:33:39.232Z,3.60
2019-03-03T22:36:08.924Z,2.83
2019-03-03T22:38:38.625Z,2.90
2019-03-03T22:41:08.312Z,3.00
2019-03-03T22:43:38.025Z,2.73
2019-03-03T22:46:07.844Z,2.47
2019-03-03T22:48:38.348Z,2.77
2019-03-03T22:51:08.269Z,2.73
2019-03-03T22:53:37.725Z,2.83
2019-03-03T22:56:07.490Z,2.80
2019-03-03T22:58:36.854Z,2.80
2019-03-03T23:01:14.755Z,3.03
2019-03-03T23:04:01.908Z,3.47
2019-03-03T23:06:52.725Z,2.53
2019-03-03T23:09:47.572Z,2.90
2019-03-03T23:12:43.065Z,2.50
2019-03-03T23:15:44.438Z,2.70
2019-03-03T23:18:47.026Z,2.97
2019-03-03T23:21:42.711Z,2.77
2019-03-03T23:24:53.629Z,2.90
2019-03-03T23:27:23.619Z,2.60
2019-03-03T23:29:53.320Z,3.80
2019-03-03T23:32:23.250Z,3.40
2019-03-03T23:34:53.989Z,3.10
2019-03-03T23:37:23.586Z,2.43
2019-03-03T23:39:53.923Z,2.87
2019-03-03T23:42:23.871Z,2.30
2019-03-03T23:44:53.761Z,2.80
2019-03-03T23:47:23.235Z,2.53
2019-03-03T23:49:53.393Z,2.73
2019-03-03T23:52:23.291Z,2.90
2019-03-03T23:54:53.026Z,2.80
2019-03-03T23:57:23.469Z,2.77
2019-03-03T23:59:53.313Z,2.40
